La Salle, Canada
Current Conditions -  °F | °C
As of 4:00 AM on Saturday 22 Nov 2014 (Local Time) from CYWG Reporting Station
Snow Showers Snow Showers  
Wind Chill: -5°   Ceiling: 1200
Heat Index: -1°   Visibility: 15mi
Dew Point: -3°   Wind: 8mph
Humidity: 86%   Direction: 20°NNE
Pressure: 29.61"   Gusts: NA
Location:  49.68°N, 97.27°W
Report Text: CYWG 221000Z 02007KT 15SM -SHSN OVC012 M01/M03 A2961 RMK SC8 SLP040
Loading
Personal Weather Stations






























Interactive Weather Map New forecast layout! Learn more

10-Day Weather Forecast

Advertisements
Track Severe Weather on mobile